Time;durP1;ratioP1;P1;durP2;ratioP2;P2;SDS_P1;SDS_P2;PMS_P1;PMS_P2;Temp;Humidity;BMP_temperature;BMP_pressure;BME280_temperature;BME280_humidity;BME280_pressure;Samples;Min_cycle;Max_cycle;Signal;HPM_P1;HPM_P2
2022/06/21 00:01:02;;;;;;;26.98;6.70;;;18.40;99.90;;;;;;6241414;23;20071;-89
2022/06/21 00:03:29;;;;;;;24.60;6.35;;;18.40;99.90;;;;;;6241333;23;20004;-90
2022/06/21 00:05:58;;;;;;;24.70;7.10;;;18.50;99.90;;;;;;6241970;23;20007;-90
2022/06/21 00:08:31;;;;;;;24.95;6.68;;;18.50;99.90;;;;;;6241244;23;20474;-90
2022/06/21 00:10:58;;;;;;;29.77;7.10;;;18.40;99.90;;;;;;6241231;23;20028;-89
2022/06/21 00:13:29;;;;;;;25.00;5.87;;;18.30;99.90;;;;;;6241413;23;20047;-90
2022/06/21 00:16:06;;;;;;;27.08;7.10;;;18.30;99.90;;;;;;6241200;23;20028;-90
2022/06/21 00:18:34;;;;;;;24.00;6.50;;;18.40;99.90;;;;;;6241319;23;20008;-89
2022/06/21 00:21:00;;;;;;;;;;;18.30;99.90;;;;;;6241747;23;20000;-90
2022/06/21 00:23:28;;;;;;;18.42;6.50;;;18.20;99.90;;;;;;6241432;23;19907;-91
2022/06/21 00:25:54;;;;;;;16.88;5.80;;;18.30;99.90;;;;;;6241445;23;20090;-89
2022/06/21 00:28:21;;;;;;;21.38;6.78;;;18.00;99.90;;;;;;6241391;23;20004;-88
2022/06/21 00:30:49;;;;;;;32.35;7.18;;;18.20;99.90;;;;;;6241244;23;20026;-89
2022/06/21 00:33:17;;;;;;;;;;;18.20;99.90;;;;;;6242120;23;20016;-90
2022/06/21 00:35:45;;;;;;;27.42;6.30;;;18.10;99.90;;;;;;6220223;23;19911;-89
2022/06/21 00:38:18;;;;;;;22.52;6.95;;;18.00;99.90;;;;;;6216966;23;20000;-90
2022/06/21 00:40:44;;;;;;;29.00;7.20;;;17.80;99.90;;;;;;6216558;23;20012;-91
2022/06/21 00:43:26;;;;;;;27.67;6.97;;;17.70;99.90;;;;;;6216550;23;20027;-89
2022/06/21 00:45:52;;;;;;;24.63;6.68;;;17.70;99.90;;;;;;6216594;23;20008;-89
2022/06/21 00:48:34;;;;;;;27.38;7.10;;;17.80;99.90;;;;;;6225432;23;20325;-89
2022/06/21 00:51:14;;;;;;;21.10;6.85;;;17.70;99.90;;;;;;6219445;23;20004;-89
2022/06/21 00:54:00;;;;;;;27.25;7.30;;;17.50;99.90;;;;;;6215758;23;20095;-90
2022/06/21 00:56:37;;;;;;;27.73;7.78;;;17.40;99.90;;;;;;6215604;23;20004;-89
2022/06/21 00:59:31;;;;;;;29.33;7.00;;;17.30;99.90;;;;;;6215819;23;20004;-91
2022/06/21 01:02:31;;;;;;;28.65;7.78;;;17.40;99.90;;;;;;6216069;23;20004;-89
2022/06/21 01:05:04;;;;;;;30.08;7.70;;;17.30;99.90;;;;;;6215562;23;20085;-89
2022/06/21 01:07:32;;;;;;;25.83;8.88;;;17.20;99.90;;;;;;6215855;23;20429;-90
2022/06/21 01:10:07;;;;;;;22.02;6.95;;;17.10;99.90;;;;;;6215766;23;20024;-89
2022/06/21 01:12:50;;;;;;;26.95;7.28;;;17.20;99.90;;;;;;6215888;23;20019;-89
2022/06/21 01:15:22;;;;;;;22.98;7.30;;;17.10;99.90;;;;;;6216222;23;20089;-90
2022/06/21 01:17:52;;;;;;;26.98;7.63;;;17.10;99.90;;;;;;6215521;23;20087;-89
2022/06/21 01:20:22;;;;;;;24.02;7.50;;;17.30;99.90;;;;;;6218498;23;20031;-90
2022/06/21 01:23:02;;;;;;;27.98;7.40;;;17.10;99.90;;;;;;6219270;23;20015;-89
2022/06/21 01:25:46;;;;;;;24.38;7.53;;;17.30;99.90;;;;;;6217756;23;20437;-90
2022/06/21 01:28:12;;;;;;;30.27;7.55;;;17.30;99.90;;;;;;6217771;23;20400;-89
2022/06/21 01:30:41;;;;;;;28.40;7.70;;;17.10;99.90;;;;;;6217585;23;20200;-89
2022/06/21 01:33:11;;;;;;;23.42;7.20;;;17.10;99.90;;;;;;6217550;23;20051;-89
2022/06/21 01:35:59;;;;;;;31.33;8.48;;;17.20;99.90;;;;;;6237678;23;20012;-90
2022/06/21 01:38:32;;;;;;;26.88;7.68;;;17.20;99.90;;;;;;6233858;23;20011;-89
2022/06/21 01:41:06;;;;;;;22.45;7.43;;;17.20;99.90;;;;;;6242460;23;20007;-87
2022/06/21 01:43:34;;;;;;;31.55;8.27;;;17.10;99.90;;;;;;6242789;23;20000;-89
2022/06/21 01:46:05;;;;;;;26.25;7.45;;;17.10;99.90;;;;;;6243012;23;20437;-88
2022/06/21 01:48:39;;;;;;;27.13;7.60;;;17.00;99.90;;;;;;6242812;23;20004;-87
2022/06/21 01:51:09;;;;;;;17.38;6.90;;;16.90;99.90;;;;;;6243038;23;20045;-88
2022/06/21 01:53:38;;;;;;;17.83;6.97;;;16.90;99.90;;;;;;6242289;23;20020;-89
2022/06/21 01:56:09;;;;;;;35.15;7.65;;;16.90;99.90;;;;;;6242838;23;20000;-89
2022/06/21 01:58:41;;;;;;;37.33;8.00;;;16.90;99.90;;;;;;6242992;23;20011;-89
2022/06/21 02:01:38;;;;;;;22.77;7.60;;;16.80;99.90;;;;;;6242524;23;20000;-89
2022/06/21 02:04:05;;;;;;;28.67;8.45;;;16.70;99.90;;;;;;6243836;23;20425;-88
2022/06/21 02:06:35;;;;;;;21.42;7.72;;;16.70;99.90;;;;;;6242431;23;20000;-89
2022/06/21 02:09:16;;;;;;;23.40;8.02;;;16.60;99.90;;;;;;6242362;23;20412;-88
2022/06/21 02:11:54;;;;;;;21.77;8.18;;;16.80;99.90;;;;;;6242624;23;20012;-89
2022/06/21 02:14:30;;;;;;;22.27;7.72;;;16.90;99.90;;;;;;6243144;23;20040;-90
2022/06/21 02:17:14;;;;;;;27.13;7.00;;;16.80;99.90;;;;;;6242416;23;20075;-89
2022/06/21 02:20:09;;;;;;;26.65;7.05;;;17.00;99.90;;;;;;6242479;23;20026;-91
2022/06/21 02:22:45;;;;;;;;;;;;;;;;;;;;;
2022/06/21 02:25:21;;;;;;;20.33;6.60;;;17.40;99.90;;;;;;6243953;23;20322;-91
2022/06/21 02:27:49;;;;;;;23.90;7.07;;;17.50;99.90;;;;;;6243223;23;20402;-91
2022/06/21 02:30:21;;;;;;;18.47;6.27;;;17.60;99.90;;;;;;6242504;23;20055;-90
2022/06/21 02:32:49;;;;;;;17.27;6.78;;;17.60;99.90;;;;;;6243279;23;20269;-89
2022/06/21 02:35:31;;;;;;;18.63;6.00;;;17.70;99.90;;;;;;6242607;23;20091;-90
2022/06/21 02:38:10;;;;;;;17.30;6.15;;;17.80;99.90;;;;;;6242791;23;20084;-91
2022/06/21 02:40:56;;;;;;;18.25;6.95;;;17.90;99.90;;;;;;6242209;23;20007;-88
2022/06/21 02:46:28;;;;;;;18.80;6.38;;;17.90;99.90;;;;;;6222636;22;20004;-90
2022/06/21 02:52:32;;;;;;;;;;;;;;;;;;;;;
2022/06/21 02:55:24;;;;;;;18.65;6.78;;;18.00;99.90;;;;;;6238663;22;20083;-89
2022/06/21 02:57:59;;;;;;;21.13;6.90;;;18.00;99.90;;;;;;6238927;23;20433;-89
2022/06/21 03:00:29;;;;;;;24.35;7.38;;;17.80;99.90;;;;;;6242183;23;20027;-89
2022/06/21 03:02:57;;;;;;;17.88;7.00;;;17.60;99.90;;;;;;6242354;23;20034;-89
2022/06/21 03:05:29;;;;;;;17.92;6.38;;;17.50;99.90;;;;;;6243120;23;20008;-89
2022/06/21 03:07:59;;;;;;;16.15;6.95;;;17.50;99.90;;;;;;6241959;23;20011;-88
2022/06/21 03:10:59;;;;;;;;;;;;;;;;;;;;;
2022/06/21 03:13:56;;;;;;;;;;;;;;;;;;;;;
2022/06/21 03:16:22;;;;;;;22.25;6.38;;;17.50;99.90;;;;;;6242006;23;20087;-89
2022/06/21 03:19:01;;;;;;;24.50;7.53;;;17.50;99.90;;;;;;6267616;22;20336;-88
2022/06/21 03:21:34;;;;;;;16.88;7.05;;;17.60;99.90;;;;;;6241981;23;20352;-91
2022/06/21 03:24:07;;;;;;;16.17;6.65;;;17.50;99.90;;;;;;6242059;23;20436;-90
2022/06/21 03:26:36;;;;;;;16.77;6.70;;;17.50;99.90;;;;;;6241849;23;20015;-90
2022/06/21 03:29:04;;;;;;;18.30;7.20;;;17.50;99.90;;;;;;6241959;23;20138;-89
2022/06/21 03:31:40;;;;;;;23.02;7.90;;;17.40;99.90;;;;;;6241787;23;20008;-89
2022/06/21 03:34:10;;;;;;;20.33;7.22;;;17.40;99.90;;;;;;6241998;23;20475;-91
2022/06/21 03:36:36;;;;;;;24.08;7.63;;;17.30;99.90;;;;;;6241554;23;20022;-88
2022/06/21 03:39:10;;;;;;;23.92;7.63;;;17.20;99.90;;;;;;6241818;23;20008;-88
2022/06/21 03:41:45;;;;;;;24.23;7.95;;;17.00;99.90;;;;;;6241171;23;20018;-89
2022/06/21 03:44:32;;;;;;;25.42;8.10;;;17.00;99.90;;;;;;6241540;23;20004;-88
2022/06/21 03:47:06;;;;;;;19.73;7.97;;;16.90;99.90;;;;;;6242952;22;19996;-88
2022/06/21 03:49:43;;;;;;;27.10;8.63;;;16.90;99.90;;;;;;6241449;23;20091;-91
2022/06/21 03:52:41;;;;;;;17.45;7.35;;;16.80;99.90;;;;;;6242237;23;20046;-90
2022/06/21 03:55:22;;;;;;;18.92;7.28;;;17.00;99.90;;;;;;6242657;23;20015;-89
2022/06/21 03:58:01;;;;;;;24.92;8.15;;;17.10;99.90;;;;;;6241522;23;20437;-90
2022/06/21 04:00:40;;;;;;;24.75;7.60;;;17.10;99.90;;;;;;6241672;23;20008;-90
2022/06/21 04:03:25;;;;;;;20.60;7.38;;;17.10;99.90;;;;;;6241149;23;20000;-90
2022/06/21 04:06:02;;;;;;;24.85;8.52;;;17.10;99.90;;;;;;6242234;23;20317;-89
2022/06/21 04:08:57;;;;;;;23.17;7.60;;;17.00;99.90;;;;;;6241478;23;20062;-93
2022/06/21 04:11:35;;;;;;;21.98;7.78;;;17.10;99.90;;;;;;6241639;23;20028;-91
2022/06/21 04:14:16;;;;;;;27.00;8.10;;;17.10;99.90;;;;;;6241315;23;20020;-90
2022/06/21 04:17:21;;;;;;;17.55;8.15;;;17.20;99.90;;;;;;6240906;23;20004;-90
2022/06/21 04:20:09;;;;;;;33.38;9.18;;;17.10;99.90;;;;;;6192241;23;20432;-91
2022/06/21 04:26:25;;;;;;;;;;;;;;;;;;;;;
2022/06/21 04:28:59;;;;;;;24.08;8.55;;;16.90;99.90;;;;;;6242392;23;20397;-91
2022/06/21 04:31:34;;;;;;;25.52;8.48;;;16.90;99.90;;;;;;6240935;23;20439;-90
2022/06/21 04:34:08;;;;;;;19.13;7.93;;;16.90;99.90;;;;;;6240039;22;20020;-92
2022/06/21 04:36:42;;;;;;;28.05;8.75;;;16.90;99.90;;;;;;6215435;23;20008;-90
2022/06/21 04:39:40;;;;;;;30.10;9.18;;;16.90;99.90;;;;;;6215434;23;20005;-90
2022/06/21 04:42:18;;;;;;;25.77;7.95;;;16.80;99.90;;;;;;6215361;23;20008;-92
2022/06/21 04:44:46;;;;;;;20.85;7.97;;;16.90;99.90;;;;;;6215028;23;20011;-92
2022/06/21 04:47:43;;;;;;;20.20;8.25;;;16.90;99.90;;;;;;6214986;23;20004;-91
2022/06/21 04:51:00;;;;;;;21.70;8.77;;;16.80;99.90;;;;;;6216452;23;20004;-91
2022/06/21 04:53:45;;;;;;;21.58;8.40;;;16.70;99.90;;;;;;6217148;23;20342;-91
2022/06/21 04:56:32;;;;;;;23.98;8.10;;;16.70;99.90;;;;;;6217745;23;20012;-87
2022/06/21 04:58:59;;;;;;;27.40;8.30;;;16.60;99.90;;;;;;6218271;23;20447;-90
2022/06/21 05:01:32;;;;;;;27.15;8.70;;;16.70;99.90;;;;;;6218610;23;20444;-91
2022/06/21 05:04:16;;;;;;;26.55;8.60;;;16.70;99.90;;;;;;6218098;23;20006;-90
2022/06/21 05:06:45;;;;;;;17.02;7.90;;;16.60;99.90;;;;;;6217715;23;20008;-91
2022/06/21 05:09:24;;;;;;;22.27;8.80;;;16.70;99.90;;;;;;6217854;23;20031;-90
2022/06/21 05:12:01;;;;;;;26.17;8.80;;;16.80;99.90;;;;;;6217483;23;20036;-91
2022/06/21 05:14:41;;;;;;;23.27;8.73;;;16.80;99.90;;;;;;6218607;23;20087;-90
2022/06/21 05:17:12;;;;;;;21.95;8.25;;;16.80;99.90;;;;;;6217516;23;20091;-90
2022/06/21 05:19:53;;;;;;;;;;;;;;;;;;;;;
2022/06/21 05:25:32;;;;;;;27.58;8.85;;;16.90;99.90;;;;;;6167713;23;20004;-92
2022/06/21 05:28:33;;;;;;;18.15;8.20;;;16.90;99.90;;;;;;6218375;23;20032;-91
2022/06/21 05:31:27;;;;;;;22.05;8.38;;;16.80;99.90;;;;;;6218444;23;20011;-91
2022/06/21 05:34:55;;;;;;;;;;;;;;;;;;;;;
2022/06/21 05:37:36;;;;;;;22.65;8.50;;;16.80;99.90;;;;;;6238123;23;20087;-92
2022/06/21 05:40:22;;;;;;;28.40;8.48;;;16.80;99.90;;;;;;6217175;23;20012;-92
2022/06/21 05:42:57;;;;;;;;;;;;;;;;;;;;;
2022/06/21 05:45:58;;;;;;;;;;;;;;;;;;;;;
2022/06/21 05:48:27;;;;;;;21.90;8.73;;;16.80;99.90;;;;;;6244745;23;20083;-92
2022/06/21 05:51:08;;;;;;;;;;;;;;;;;;;;;
2022/06/21 05:53:50;;;;;;;18.98;7.63;;;16.80;99.90;;;;;;6244386;23;20091;-92
2022/06/21 05:57:16;;;;;;;;;;;;;;;;;;;;;
2022/06/21 05:59:37;;;;;;;23.33;8.00;;;17.20;99.90;;;;;;6237317;23;20008;-91
2022/06/21 06:02:34;;;;;;;27.45;8.43;;;17.20;99.90;;;;;;6216981;23;20011;-92
2022/06/21 06:05:25;;;;;;;17.48;8.18;;;17.00;99.90;;;;;;6190906;23;20460;-92
2022/06/21 06:07:58;;;;;;;23.30;8.40;;;17.20;99.90;;;;;;6217171;23;20000;-91
2022/06/21 06:10:31;;;;;;;24.70;8.27;;;17.20;99.90;;;;;;6217105;23;20000;-93
2022/06/21 06:13:14;;;;;;;19.05;7.47;;;17.40;99.90;;;;;;6218301;23;20019;-92
2022/06/21 06:16:18;;;;;;;19.13;8.10;;;17.30;99.90;;;;;;6217060;23;20424;-91
2022/06/21 06:19:27;;;;;;;17.27;9.38;;;17.50;99.90;;;;;;6217122;23;20008;-92
2022/06/21 06:22:15;;;;;;;;;;;;;;;;;;;;;
2022/06/21 06:25:03;;;;;;;17.88;7.78;;;17.50;99.90;;;;;;6243788;23;20083;-91
2022/06/21 06:27:48;;;;;;;;;;;;;;;;;;;;;
2022/06/21 06:30:25;;;;;;;19.90;8.13;;;17.50;99.90;;;;;;6244015;23;19974;-93
2022/06/21 06:33:30;;;;;;;20.85;8.40;;;17.50;99.90;;;;;;6216888;23;20333;-91
2022/06/21 06:36:17;;;;;;;21.50;7.97;;;17.30;99.90;;;;;;6241697;23;20008;-93
2022/06/21 06:38:43;;;;;;;19.98;7.88;;;17.80;99.90;;;;;;6243169;23;20008;-91
2022/06/21 06:41:37;;;;;;;;;;;;;;;;;;;;;
2022/06/21 06:44:26;;;;;;;24.55;7.38;;;17.80;99.90;;;;;;6244358;23;20089;-92
2022/06/21 06:47:02;;;;;;;;;;;;;;;;;;;;;
2022/06/21 06:49:53;;;;;;;;;;;;;;;;;;;;;
2022/06/21 06:52:22;;;;;;;20.80;7.68;;;18.00;99.90;;;;;;6243402;23;20095;-91
2022/06/21 06:55:18;;;;;;;;;;;;;;;;;;;;;
2022/06/21 06:58:06;;;;;;;17.00;7.30;;;18.20;99.90;;;;;;6216487;22;20596;-91
2022/06/21 07:00:48;;;;;;;;;;;;;;;;;;;;;
2022/06/21 07:03:18;;;;;;;18.42;7.97;;;18.60;99.90;;;;;;6243537;23;20100;-92
2022/06/21 07:06:05;;;;;;;18.85;7.80;;;18.50;99.90;;;;;;6242370;23;20000;-92
2022/06/21 07:09:01;;;;;;;26.20;7.10;;;18.60;99.90;;;;;;6242662;23;20008;-92
2022/06/21 07:11:39;;;;;;;18.20;7.75;;;18.70;99.90;;;;;;6241985;23;20000;-93
2022/06/21 07:14:31;;;;;;;15.25;7.20;;;18.80;99.90;;;;;;6242883;23;20016;-92
2022/06/21 07:17:36;;;;;;;17.48;7.10;;;18.90;99.90;;;;;;6241638;23;20383;-91
2022/06/21 07:20:19;;;;;;;14.77;7.15;;;18.70;99.90;;;;;;6242597;23;20008;-92
2022/06/21 07:22:55;;;;;;;18.75;7.43;;;18.80;99.90;;;;;;6241803;23;20008;-92
2022/06/21 07:25:42;;;;;;;22.38;7.35;;;18.80;99.90;;;;;;6241571;23;20091;-91
2022/06/21 07:28:27;;;;;;;20.05;7.65;;;18.70;99.90;;;;;;6241916;23;20000;-90
2022/06/21 07:31:05;;;;;;;;;;;;;;;;;;;;;
2022/06/21 07:34:03;;;;;;;19.67;7.25;;;18.80;99.90;;;;;;6244137;23;20411;-92
2022/06/21 07:36:36;;;;;;;17.00;6.88;;;18.80;99.90;;;;;;6241799;23;20011;-91
2022/06/21 07:39:13;;;;;;;15.75;7.13;;;18.80;99.90;;;;;;6242305;23;20012;-92
2022/06/21 07:41:48;;;;;;;21.15;7.00;;;19.10;99.90;;;;;;6241385;23;20000;-92
2022/06/21 07:44:34;;;;;;;20.38;7.65;;;19.30;99.90;;;;;;6241749;23;20073;-91
2022/06/21 07:47:39;;;;;;;;;;;;;;;;;;;;;
2022/06/21 07:50:44;;;;;;;14.93;6.80;;;19.40;99.90;;;;;;6243888;23;20099;-92
2022/06/21 07:53:55;;;;;;;14.73;6.72;;;19.50;99.90;;;;;;6239111;23;20035;-92
2022/06/21 07:56:42;;;;;;;14.20;7.00;;;19.70;99.90;;;;;;6193595;23;20008;-92
2022/06/21 07:59:38;;;;;;;15.40;6.90;;;19.80;99.90;;;;;;6241933;23;20004;-93
2022/06/21 08:09:23;;;;;;;;;;;;;;;;;;;;;
2022/06/21 08:11:53;;;;;;;16.83;7.80;;;20.00;99.90;;;;;;6242809;23;20087;-92
2022/06/21 08:14:19;;;;;;;21.60;7.15;;;19.80;99.90;;;;;;6242087;23;20016;-91
2022/06/21 08:17:05;;;;;;;14.75;7.75;;;20.00;99.90;;;;;;6241511;23;20030;-91
2022/06/21 08:19:40;;;;;;;19.92;7.20;;;19.80;99.90;;;;;;6241442;23;20008;-91
2022/06/21 08:22:11;;;;;;;16.33;7.18;;;20.20;99.90;;;;;;6241937;23;20008;-91
2022/06/21 08:28:40;;;;;;;19.52;7.57;;;20.50;99.90;;;;;;6121521;23;20007;-91
2022/06/21 08:31:17;;;;;;;15.98;6.03;;;20.60;99.90;;;;;;6179462;23;20083;-89
2022/06/21 08:33:51;;;;;;;19.92;7.53;;;20.80;99.90;;;;;;6241078;22;20398;-89
2022/06/21 08:36:32;;;;;;;17.23;6.70;;;20.80;99.90;;;;;;6216206;23;20005;-89
2022/06/21 08:39:10;;;;;;;18.48;6.57;;;20.80;99.90;;;;;;6216085;23;20052;-92
2022/06/21 08:41:57;;;;;;;;;;;21.10;99.90;;;;;;6217298;23;20348;-90
2022/06/21 08:44:41;;;;;;;15.68;6.50;;;21.30;99.90;;;;;;6215906;23;19900;-91
2022/06/21 08:47:44;;;;;;;16.05;6.43;;;21.20;99.90;;;;;;6216793;23;20432;-91
2022/06/21 08:50:37;;;;;;;18.40;6.60;;;21.40;99.90;;;;;;6216599;23;20008;-90
2022/06/21 08:53:17;;;;;;;19.73;6.82;;;21.20;99.90;;;;;;6216188;23;20352;-90
2022/06/21 08:55:46;;;;;;;21.10;7.55;;;21.30;99.90;;;;;;6215980;23;20008;-90
2022/06/21 08:58:39;;;;;;;17.95;7.25;;;21.30;99.90;;;;;;6216499;23;20090;-91
2022/06/21 09:01:29;;;;;;;20.50;7.57;;;21.50;99.90;;;;;;6216011;23;20062;-90
2022/06/21 09:04:20;;;;;;;14.88;6.80;;;21.50;99.90;;;;;;6216384;23;20001;-89
2022/06/21 09:07:15;;;;;;;15.30;6.63;;;21.40;99.90;;;;;;6216198;23;20042;-90
2022/06/21 09:10:02;;;;;;;16.13;7.57;;;21.80;99.90;;;;;;6216429;23;20000;-90
2022/06/21 09:12:43;;;;;;;17.53;7.33;;;21.90;99.90;;;;;;6215850;23;20031;-89
2022/06/21 09:15:12;;;;;;;19.10;6.57;;;21.90;99.90;;;;;;6216643;23;20004;-90
2022/06/21 09:18:01;;;;;;;17.80;7.15;;;21.60;99.90;;;;;;6216678;23;20010;-92
2022/06/21 09:20:45;;;;;;;22.45;7.82;;;21.90;99.90;;;;;;6191818;23;20008;-89
2022/06/21 09:23:37;;;;;;;15.82;7.30;;;21.80;99.90;;;;;;6216476;23;20391;-91
2022/06/21 09:26:24;;;;;;;16.95;7.70;;;21.90;99.90;;;;;;6215905;23;20015;-88
2022/06/21 09:28:52;;;;;;;;;;;21.70;99.90;;;;;;6216204;23;20004;-90
2022/06/21 09:31:43;;;;;;;16.10;7.30;;;22.00;99.90;;;;;;6215750;23;20217;-89
2022/06/21 09:34:22;;;;;;;16.38;6.97;;;22.00;99.90;;;;;;6218196;23;20407;-90
2022/06/21 09:37:10;;;;;;;15.98;8.13;;;22.30;99.90;;;;;;6241329;23;20004;-89
2022/06/21 09:39:48;;;;;;;20.80;7.15;;;22.40;99.90;;;;;;6241522;23;20364;-90
2022/06/21 09:42:31;;;;;;;17.95;7.07;;;22.40;99.90;;;;;;6243158;23;20004;-90
2022/06/21 09:44:59;;;;;;;14.30;7.10;;;22.70;99.90;;;;;;6242878;23;20027;-91
2022/06/21 09:47:44;;;;;;;19.50;8.25;;;22.50;99.90;;;;;;6243054;23;20015;-91
2022/06/21 09:50:30;;;;;;;17.38;7.55;;;22.90;99.90;;;;;;6243611;23;20004;-90
2022/06/21 09:53:08;;;;;;;18.15;8.10;;;23.10;99.90;;;;;;6242764;23;20050;-90
2022/06/21 09:56:19;;;;;;;13.88;7.22;;;22.90;99.90;;;;;;6242788;23;20035;-89
2022/06/21 09:59:09;;;;;;;21.33;7.55;;;23.00;99.90;;;;;;6156640;23;20005;-89
2022/06/21 10:01:58;;;;;;;20.80;7.20;;;22.90;99.90;;;;;;6242772;23;20008;-89
2022/06/21 10:04:33;;;;;;;21.42;7.55;;;22.90;99.90;;;;;;6242878;23;20004;-89
2022/06/21 10:07:25;;;;;;;23.67;7.55;;;22.80;99.90;;;;;;6242705;23;20000;-89
2022/06/21 10:10:07;;;;;;;17.20;7.60;;;22.90;99.90;;;;;;6242617;23;20012;-89
2022/06/21 10:12:56;;;;;;;15.82;7.55;;;22.70;99.90;;;;;;6242643;23;20012;-90
2022/06/21 10:15:40;;;;;;;22.05;7.97;;;22.50;99.90;;;;;;6242587;23;20039;-91
2022/06/21 10:18:24;;;;;;;20.58;7.57;;;22.80;99.90;;;;;;6242631;23;20402;-90
2022/06/21 10:21:04;;;;;;;21.90;8.43;;;22.70;99.90;;;;;;6242432;23;20008;-92
2022/06/21 10:24:06;;;;;;;29.67;9.00;;;22.80;99.90;;;;;;6243037;23;20004;-90
2022/06/21 10:26:58;;;;;;;14.98;7.82;;;23.00;99.90;;;;;;6207538;23;20034;-91
2022/06/21 10:29:59;;;;;;;18.02;7.75;;;23.00;99.90;;;;;;6242827;23;20004;-92
2022/06/21 10:32:43;;;;;;;16.15;7.57;;;22.80;99.90;;;;;;6242350;23;20083;-92
2022/06/21 10:35:20;;;;;;;23.88;7.88;;;23.00;99.90;;;;;;6242428;23;20326;-91
2022/06/21 10:38:05;;;;;;;22.35;8.30;;;23.00;99.90;;;;;;6217294;23;20004;-89
2022/06/21 10:40:45;;;;;;;19.05;7.85;;;23.10;99.90;;;;;;6242542;23;20004;-88
2022/06/21 10:43:52;;;;;;;19.35;8.02;;;23.20;99.90;;;;;;6217283;23;20006;-90
2022/06/21 10:46:26;;;;;;;20.42;7.43;;;23.20;99.90;;;;;;6195291;23;20090;-89
2022/06/21 10:49:04;;;;;;;21.27;8.90;;;23.50;99.90;;;;;;6217564;23;20015;-89
2022/06/21 10:51:53;;;;;;;21.90;8.77;;;23.40;99.90;;;;;;6216879;23;20383;-89
2022/06/21 10:54:25;;;;;;;21.60;8.32;;;23.80;99.90;;;;;;6216736;23;20012;-91
2022/06/21 10:57:35;;;;;;;20.52;8.27;;;23.80;99.90;;;;;;6217004;23;20004;-91
2022/06/21 11:03:03;;;;;;;20.80;9.38;;;23.60;99.90;;;;;;6243536;23;20062;-89
2022/06/21 11:06:06;;;;;;;19.27;9.02;;;23.30;99.90;;;;;;6216920;23;20348;-90
2022/06/21 11:08:50;;;;;;;20.45;9.18;;;23.30;99.90;;;;;;6242247;23;20000;-90
2022/06/21 11:11:57;;;;;;;21.20;9.15;;;23.60;99.90;;;;;;6217415;23;20012;-90
2022/06/21 11:14:23;;;;;;;22.45;8.93;;;23.70;99.90;;;;;;6241891;23;20393;-90
2022/06/21 11:17:09;;;;;;;20.90;8.68;;;23.70;99.90;;;;;;6216688;23;20047;-92
2022/06/21 11:19:42;;;;;;;16.02;8.65;;;23.60;99.90;;;;;;6191855;23;20040;-90
2022/06/21 11:22:34;;;;;;;17.60;7.95;;;23.70;99.90;;;;;;6216617;23;20183;-90
2022/06/21 11:25:24;;;;;;;20.13;7.53;;;23.90;99.90;;;;;;6216479;23;20012;-90
2022/06/21 11:27:59;;;;;;;17.33;7.68;;;24.10;99.90;;;;;;6216463;23;20005;-90
2022/06/21 11:30:39;;;;;;;17.80;7.65;;;24.50;99.90;;;;;;6216644;23;20090;-90
2022/06/21 11:33:24;;;;;;;;;;;;;;;;;;;;;
2022/06/21 11:36:25;;;;;;;18.48;8.35;;;25.20;99.90;;;;;;6243289;22;20526;-91
2022/06/21 11:39:14;;;;;;;17.67;7.63;;;25.20;99.90;;;;;;6179428;23;20008;-91
2022/06/21 11:42:10;;;;;;;19.08;8.27;;;25.20;99.90;;;;;;6216563;23;20344;-90
2022/06/21 11:45:07;;;;;;;19.05;7.90;;;24.90;99.90;;;;;;6216396;23;20004;-91
2022/06/21 11:48:00;;;;;;;15.38;8.02;;;24.40;99.90;;;;;;6216436;23;20047;-91
2022/06/21 11:50:36;;;;;;;27.52;8.40;;;24.10;99.90;;;;;;6216229;23;20042;-91
2022/06/21 11:53:11;;;;;;;17.83;8.18;;;24.40;99.90;;;;;;6216371;23;20039;-90
2022/06/21 11:55:54;;;;;;;20.60;8.23;;;24.50;99.90;;;;;;6216210;23;20336;-90
2022/06/21 11:58:34;;;;;;;19.33;8.18;;;24.40;99.90;;;;;;6217185;23;20008;-91
2022/06/21 12:01:16;;;;;;;17.08;7.70;;;24.40;99.90;;;;;;6216273;23;20004;-90
2022/06/21 12:04:14;;;;;;;15.02;7.45;;;24.30;99.90;;;;;;6216343;23;20336;-90
2022/06/21 12:06:48;;;;;;;17.67;7.72;;;24.70;99.90;;;;;;6216099;23;20008;-92
2022/06/21 12:09:33;;;;;;;17.10;7.88;;;24.70;99.90;;;;;;6216311;23;20083;-90
2022/06/21 12:11:58;;;;;;;19.00;8.32;;;24.60;99.90;;;;;;6216049;23;20008;-89
2022/06/21 12:14:27;;;;;;;17.60;8.50;;;24.60;99.90;;;;;;6216399;23;20008;-91
2022/06/21 12:17:05;;;;;;;16.08;7.72;;;24.20;99.90;;;;;;6216520;23;20360;-90
2022/06/21 12:19:38;;;;;;;21.38;8.40;;;24.40;99.90;;;;;;6215997;23;20326;-90
2022/06/21 12:22:10;;;;;;;17.30;8.27;;;24.50;99.90;;;;;;6216147;23;20069;-91
2022/06/21 12:24:35;;;;;;;17.23;7.93;;;24.60;99.90;;;;;;6216089;23;20436;-91
2022/06/21 12:27:01;;;;;;;15.25;7.90;;;24.80;99.90;;;;;;6216383;23;20008;-90
2022/06/21 12:29:30;;;;;;;19.83;8.48;;;24.80;99.90;;;;;;6216084;23;20030;-90
2022/06/21 12:32:00;;;;;;;18.45;8.32;;;24.60;99.90;;;;;;6215970;23;20402;-90
2022/06/21 12:34:55;;;;;;;17.80;8.10;;;24.40;99.90;;;;;;6221152;23;20027;-91
2022/06/21 12:37:38;;;;;;;16.65;8.18;;;24.40;99.90;;;;;;6241989;23;20030;-89
2022/06/21 12:40:24;;;;;;;18.77;8.00;;;24.20;99.90;;;;;;6241246;23;20041;-90
2022/06/21 12:43:08;;;;;;;21.90;8.18;;;24.30;99.90;;;;;;6245922;23;19985;-89
2022/06/21 12:45:49;;;;;;;18.67;7.70;;;24.60;99.90;;;;;;6242007;23;20012;-90
2022/06/21 12:48:29;;;;;;;21.00;9.00;;;24.60;99.90;;;;;;6243615;23;20020;-92
2022/06/21 12:51:39;;;;;;;18.10;8.48;;;24.70;99.90;;;;;;6241843;23;20008;-91
2022/06/21 12:54:35;;;;;;;16.08;7.70;;;24.70;99.90;;;;;;6241983;23;20038;-90
2022/06/21 12:57:23;;;;;;;17.02;8.25;;;25.00;99.90;;;;;;6241085;23;20005;-90
2022/06/21 13:00:10;;;;;;;13.85;7.72;;;25.30;99.90;;;;;;6242120;23;20000;-90
2022/06/21 13:03:11;;;;;;;19.75;8.15;;;25.50;99.90;;;;;;6241537;23;20034;-89
2022/06/21 13:05:45;;;;;;;19.30;8.25;;;25.10;99.90;;;;;;6241114;23;20032;-90
2022/06/21 13:08:30;;;;;;;18.95;8.48;;;25.00;99.90;;;;;;6241276;23;20079;-90
2022/06/21 13:11:05;;;;;;;20.70;8.02;;;24.80;99.90;;;;;;6241165;23;20019;-89
2022/06/21 13:13:49;;;;;;;19.48;8.52;;;25.10;99.90;;;;;;6241477;23;20058;-92
2022/06/21 13:16:39;;;;;;;18.77;8.20;;;25.30;99.90;;;;;;6242874;23;20004;-89
2022/06/21 13:19:23;;;;;;;20.23;7.95;;;25.40;99.90;;;;;;6243059;23;20035;-91
2022/06/21 13:22:10;;;;;;;22.17;7.88;;;25.60;99.90;;;;;;6243433;23;20004;-90
2022/06/21 13:24:54;;;;;;;13.90;7.68;;;25.90;99.90;;;;;;6242923;23;20555;-90
2022/06/21 13:27:43;;;;;;;21.63;8.63;;;25.70;99.90;;;;;;6244336;23;20008;-88
2022/06/21 13:30:33;;;;;;;21.27;8.93;;;25.80;99.90;;;;;;6242927;23;20004;-89
2022/06/21 13:33:08;;;;;;;19.23;8.15;;;26.00;99.90;;;;;;6242962;23;20019;-90
2022/06/21 13:36:14;;;;;;;15.60;8.63;;;26.20;99.90;;;;;;6242752;23;20014;-90
2022/06/21 13:38:46;;;;;;;17.52;8.30;;;26.20;99.90;;;;;;6215538;23;20079;-92
2022/06/21 13:44:29;;;;;;;17.77;8.38;;;25.60;99.90;;;;;;6244351;23;20094;-92
2022/06/21 13:47:31;;;;;;;23.55;8.55;;;25.50;99.90;;;;;;6218456;23;20008;-89
2022/06/21 13:50:11;;;;;;;22.00;8.55;;;25.40;99.90;;;;;;6217695;23;20031;-89
2022/06/21 13:53:03;;;;;;;20.48;8.52;;;25.30;99.90;;;;;;6217306;23;20012;-89
2022/06/21 13:55:46;;;;;;;25.90;8.95;;;25.30;99.90;;;;;;6218060;23;20012;-91
2022/06/21 13:58:27;;;;;;;19.20;8.60;;;25.40;99.90;;;;;;6217415;23;20011;-90
2022/06/21 14:01:13;;;;;;;17.63;8.38;;;25.50;99.90;;;;;;6218174;23;20004;-91
2022/06/21 14:03:48;;;;;;;23.70;8.70;;;25.70;99.90;;;;;;6217737;23;20042;-91
2022/06/21 14:06:36;;;;;;;18.40;8.60;;;25.60;99.90;;;;;;6217766;23;20008;-90
2022/06/21 14:09:15;;;;;;;24.17;8.80;;;25.60;99.90;;;;;;6217650;23;20000;-89
2022/06/21 14:12:03;;;;;;;;;;;;;;;;;;;;;
2022/06/21 14:15:03;;;;;;;22.33;8.35;;;25.80;99.90;;;;;;6243952;23;20083;-91
2022/06/21 14:17:50;;;;;;;18.88;8.25;;;26.20;99.90;;;;;;6217605;23;20016;-90
2022/06/21 14:20:37;;;;;;;16.80;8.20;;;26.10;99.90;;;;;;6217336;23;20004;-90
2022/06/21 14:23:29;;;;;;;17.02;8.60;;;26.20;99.90;;;;;;6217200;23;20457;-91
2022/06/21 14:26:38;;;;;;;23.33;8.75;;;26.30;99.90;;;;;;6216615;23;20007;-91
2022/06/21 14:29:39;;;;;;;;;;;;;;;;;;;;;
2022/06/21 14:32:15;;;;;;;17.25;8.57;;;26.20;99.90;;;;;;6243629;23;20087;-90
2022/06/21 14:35:12;;;;;;;26.50;9.32;;;26.10;99.90;;;;;;6217236;23;20016;-89
2022/06/21 14:37:57;;;;;;;;;;;26.10;99.90;;;;;;6177337;23;20014;-91
2022/06/21 14:40:35;;;;;;;19.52;8.63;;;26.10;99.90;;;;;;6242530;23;19900;-89
2022/06/21 14:43:26;;;;;;;24.83;9.60;;;26.20;99.90;;;;;;6216996;23;20046;-90
2022/06/21 14:46:01;;;;;;;28.40;9.63;;;26.20;99.90;;;;;;6217444;23;20050;-90
2022/06/21 14:48:59;;;;;;;20.58;8.95;;;26.10;99.90;;;;;;6217577;23;20331;-89
2022/06/21 14:51:36;;;;;;;27.67;9.40;;;26.10;99.90;;;;;;6217592;23;20444;-90
2022/06/21 14:54:29;;;;;;;18.13;8.77;;;26.20;99.90;;;;;;6216706;23;20012;-89